createdAt,value
2022-08-22T00:02:54.721Z,997.15
2022-08-22T04:00:34.574Z,996.40
2022-08-22T04:05:34.480Z,996.37
2022-08-22T04:10:34.438Z,996.37
2022-08-22T04:15:41.406Z,996.41
2022-08-22T04:20:34.325Z,996.41
2022-08-22T04:25:34.270Z,996.43
2022-08-22T04:30:34.216Z,996.36
2022-08-22T04:35:34.160Z,996.34
2022-08-22T04:40:34.109Z,996.30
2022-08-22T04:45:34.074Z,996.31
2022-08-22T04:50:34.039Z,996.37
2022-08-22T04:55:33.946Z,996.39
2022-08-22T05:00:33.894Z,996.46
2022-08-22T05:05:33.841Z,996.49
2022-08-22T05:10:33.786Z,996.50
2022-08-22T05:15:33.728Z,996.43
2022-08-22T05:20:33.678Z,996.58
2022-08-22T05:25:33.623Z,996.56
2022-08-22T05:30:33.568Z,996.58
2022-08-22T05:35:33.510Z,996.60
2022-08-22T05:40:33.463Z,996.58
2022-08-22T05:45:33.404Z,996.63
2022-08-22T05:50:33.351Z,996.70
2022-08-22T05:55:33.298Z,996.77
2022-08-22T06:00:33.246Z,996.52
2022-08-22T06:05:33.192Z,996.62
2022-08-22T06:10:33.142Z,996.53
2022-08-22T06:15:33.081Z,996.75
2022-08-22T06:20:33.037Z,996.85
2022-08-22T06:25:32.975Z,996.95
2022-08-22T06:30:32.923Z,996.94
2022-08-22T06:35:32.872Z,996.93
2022-08-22T06:40:32.815Z,996.88
2022-08-22T06:45:32.777Z,996.75
2022-08-22T06:50:32.716Z,996.87
2022-08-22T06:55:32.676Z,996.89
2022-08-22T07:00:32.615Z,996.92
2022-08-22T07:05:32.552Z,996.83
2022-08-22T07:10:32.504Z,996.98
2022-08-22T07:15:32.579Z,996.89
2022-08-22T07:20:32.404Z,996.76
2022-08-22T07:25:32.343Z,996.88
2022-08-22T07:30:32.294Z,996.92
2022-08-22T07:35:32.238Z,996.93
2022-08-22T07:40:32.184Z,996.92
2022-08-22T07:45:32.134Z,996.92
2022-08-22T07:50:32.077Z,996.99
2022-08-22T07:55:32.027Z,996.98
2022-08-22T08:00:31.974Z,997.03
2022-08-22T08:05:31.926Z,997.10
2022-08-22T08:10:31.872Z,996.96
2022-08-22T08:15:31.827Z,996.91
2022-08-22T08:20:31.772Z,996.84
2022-08-22T08:25:31.721Z,996.80
2022-08-22T08:30:31.724Z,996.78
2022-08-22T08:35:31.611Z,996.66
2022-08-22T08:40:32.559Z,996.64
2022-08-22T08:45:31.508Z,996.62
2022-08-22T08:50:31.457Z,996.63
2022-08-22T08:55:31.409Z,996.60
2022-08-22T09:00:31.355Z,996.52
2022-08-22T09:05:31.306Z,996.42
2022-08-22T09:10:31.249Z,996.52
2022-08-22T09:15:31.195Z,996.47
2022-08-22T09:20:32.142Z,996.44
2022-08-22T09:25:36.795Z,996.45
2022-08-22T09:30:32.036Z,996.36
2022-08-22T09:35:30.993Z,996.28
2022-08-22T09:40:30.936Z,996.26
2022-08-22T09:45:30.885Z,996.23
2022-08-22T09:50:30.830Z,996.15
2022-08-22T09:55:35.534Z,996.14
2022-08-22T10:00:31.728Z,996.07
2022-08-22T10:05:40.402Z,995.99
2022-08-22T10:10:31.633Z,995.99
2022-08-22T10:15:30.571Z,995.98
2022-08-22T10:20:37.565Z,995.93
2022-08-22T10:25:30.467Z,995.84
2022-08-22T10:30:30.413Z,995.90
2022-08-22T10:35:33.746Z,995.86
2022-08-22T10:40:30.310Z,995.78
2022-08-22T10:45:35.806Z,995.78
2022-08-22T10:50:31.888Z,995.82
2022-08-22T10:55:30.160Z,995.78
2022-08-22T11:00:30.097Z,995.75
2022-08-22T11:05:30.051Z,995.72
2022-08-22T11:10:29.996Z,995.80
2022-08-22T11:15:35.214Z,995.67
2022-08-22T11:20:30.898Z,995.64
2022-08-22T11:25:38.661Z,995.62
2022-08-22T11:30:30.852Z,995.65
2022-08-22T11:35:29.741Z,995.61
2022-08-22T11:40:29.748Z,995.57
2022-08-22T11:45:29.637Z,995.61
2022-08-22T11:50:29.588Z,995.52
2022-08-22T11:55:33.000Z,995.53
2022-08-22T12:00:30.483Z,995.56
2022-08-22T12:05:29.434Z,995.46
2022-08-22T12:10:29.380Z,995.50
2022-08-22T12:15:29.328Z,995.47
2022-08-22T12:20:29.272Z,995.41
2022-08-22T12:25:29.226Z,995.41
2022-08-22T12:30:29.214Z,995.43
2022-08-22T12:35:30.346Z,995.37
2022-08-22T12:40:29.145Z,995.35
2022-08-22T12:45:29.025Z,995.32
2022-08-22T12:50:28.967Z,995.27
2022-08-22T12:55:28.926Z,995.27
2022-08-22T13:00:29.456Z,995.24
2022-08-22T13:05:28.820Z,995.19
2022-08-22T13:10:28.761Z,995.20
2022-08-22T13:15:28.715Z,995.12
2022-08-22T13:20:28.665Z,995.16
2022-08-22T13:25:28.614Z,995.19
2022-08-22T13:30:28.564Z,995.17
2022-08-22T13:35:28.508Z,995.11
2022-08-22T13:40:29.009Z,995.11
2022-08-22T13:45:28.402Z,995.10
2022-08-22T13:50:28.355Z,995.03
2022-08-22T13:55:29.919Z,995.12
2022-08-22T14:00:29.239Z,995.01
2022-08-22T14:05:28.196Z,995.02
2022-08-22T14:10:28.146Z,995.01
2022-08-22T14:15:32.284Z,994.93
2022-08-22T14:20:33.458Z,994.86
2022-08-22T14:25:27.990Z,994.93
2022-08-22T14:30:28.056Z,994.89
2022-08-22T14:35:35.148Z,994.90
2022-08-22T14:40:29.023Z,994.82
2022-08-22T14:45:27.879Z,994.87
2022-08-22T14:50:27.732Z,994.80
2022-08-22T14:55:27.679Z,994.67
2022-08-22T15:00:28.530Z,994.64
2022-08-22T15:05:27.580Z,994.61
2022-08-22T15:10:27.533Z,994.55
2022-08-22T15:15:27.477Z,994.57
2022-08-22T15:20:28.205Z,994.51
2022-08-22T15:25:27.373Z,994.49
2022-08-22T15:30:27.318Z,994.44
2022-08-22T15:35:27.269Z,994.43
2022-08-22T15:40:27.318Z,994.34
2022-08-22T15:45:27.165Z,994.30
2022-08-22T15:50:27.115Z,994.26
2022-08-22T15:55:27.060Z,994.25
2022-08-22T16:00:27.898Z,994.26
2022-08-22T16:05:26.957Z,994.35
2022-08-22T16:10:26.939Z,994.28
2022-08-22T16:15:26.854Z,994.36
2022-08-22T16:20:26.800Z,994.31
2022-08-22T16:25:26.755Z,994.28
2022-08-22T16:30:26.697Z,994.25
2022-08-22T16:35:26.649Z,994.19
2022-08-22T16:40:26.662Z,994.22
2022-08-22T16:45:26.541Z,994.31
2022-08-22T16:50:26.494Z,994.28
2022-08-22T16:55:26.440Z,994.29
2022-08-22T17:00:26.382Z,994.26
2022-08-22T17:05:30.023Z,994.27
2022-08-22T17:10:26.281Z,994.22
2022-08-22T17:15:26.226Z,994.21
2022-08-22T17:20:26.172Z,994.28
2022-08-22T17:25:26.120Z,994.12
2022-08-22T17:30:26.062Z,994.13
2022-08-22T17:35:26.019Z,994.08
2022-08-22T17:40:26.033Z,994.19
2022-08-22T17:45:28.054Z,994.15
2022-08-22T17:50:25.858Z,994.19
2022-08-22T17:55:25.806Z,994.24
2022-08-22T18:00:25.750Z,994.28
2022-08-22T18:05:25.705Z,994.31
2022-08-22T18:10:25.636Z,994.32
2022-08-22T18:15:25.584Z,994.38
2022-08-22T18:20:25.530Z,994.48
2022-08-22T18:25:25.477Z,994.45
2022-08-22T18:30:25.424Z,994.41
2022-08-22T18:35:25.372Z,994.44
2022-08-22T18:40:25.426Z,994.43
2022-08-22T18:45:25.266Z,994.44
2022-08-22T18:50:26.331Z,994.55
2022-08-22T18:55:25.163Z,994.52
2022-08-22T19:00:25.106Z,994.60
2022-08-22T19:05:25.055Z,994.59
2022-08-22T19:10:25.002Z,994.66
2022-08-22T19:15:25.029Z,994.69
2022-08-22T19:20:24.976Z,994.68
2022-08-22T19:25:24.844Z,994.75
2022-08-22T19:30:24.792Z,994.70
2022-08-22T19:35:24.810Z,994.76
2022-08-22T19:40:24.732Z,994.85
2022-08-22T19:45:24.632Z,994.89
2022-08-22T19:50:24.581Z,994.91
2022-08-22T19:55:24.524Z,994.88
2022-08-22T20:00:24.473Z,994.85
2022-08-22T20:05:24.418Z,994.84
2022-08-22T20:10:24.369Z,994.78
2022-08-22T20:15:24.313Z,994.84
2022-08-22T20:20:35.827Z,994.82
2022-08-22T20:25:43.486Z,994.84
2022-08-22T20:30:25.160Z,994.85
2022-08-22T20:35:24.464Z,994.84
2022-08-22T20:40:54.801Z,994.80
2022-08-22T20:45:24.987Z,994.75
2022-08-22T20:50:23.941Z,994.82
2022-08-22T20:55:23.888Z,994.79
2022-08-22T21:00:23.833Z,994.72
2022-08-22T21:05:23.774Z,994.71
2022-08-22T21:10:23.723Z,994.73
2022-08-22T21:15:23.667Z,994.67
2022-08-22T21:20:23.611Z,994.70
2022-08-22T21:25:23.560Z,994.72
2022-08-22T21:30:23.504Z,994.72
2022-08-22T21:35:23.453Z,994.79
2022-08-22T21:40:23.445Z,994.84
2022-08-22T21:45:23.345Z,994.79
2022-08-22T21:50:23.294Z,994.73
2022-08-22T21:55:23.232Z,994.70
2022-08-22T22:00:23.177Z,994.74
2022-08-22T22:05:23.129Z,994.72
2022-08-22T22:10:23.073Z,994.72
2022-08-22T22:15:23.016Z,994.75
2022-08-22T22:20:29.999Z,994.70
2022-08-22T22:25:39.685Z,994.70
2022-08-22T22:30:23.858Z,994.75
2022-08-22T22:35:22.799Z,994.78
2022-08-22T22:40:22.804Z,994.78
2022-08-22T22:45:22.692Z,994.77
2022-08-22T22:50:22.637Z,994.81
2022-08-22T22:55:24.795Z,994.81
2022-08-22T23:00:22.531Z,994.79
2022-08-22T23:05:23.475Z,994.75
2022-08-22T23:10:22.434Z,994.80
2022-08-22T23:15:22.370Z,994.82
2022-08-22T23:20:22.320Z,994.78
2022-08-22T23:25:22.313Z,994.78
